Portada
METAR-TAF:

METAR-TAF

Aeroports :

Krabi, Tailàndia

latitud: 08-06-03N, longitud: 098-59-05E, altitud: 25 m

Observació

L'informe es va fer fa 27 minuts, a les 03:00 UTC
Vent 4 kt del Nord-Est, variant entre Nord-Oest i Est/Sud-Est
Temperatura 30°C
Humitat 70%
Pressió 1014 hPa
Visibilitat 10 km o més
Núvols disperses a una alçada de 2000 ft

METAR: VTSG 010300Z 05004KT 320V120 9999 SCT020 30/24 Q1014 NOSIG

Hora: 10:27 (03:27 UTC)

Pronòstic

L'informe es va fer fa 4 hores i 27 minuts, a les 23:00 UTC
Pronòstic vàlid del 01 a les 00 UTC al 01 a les 24 UTC
Vent kt del Nord
Visibilitat 10 km o més
Escasses núvols a una alçada de 2000 ft
Evolucionant progressivament
l' 01 a les 02 UTC al 01 a les 04 UTC
Vent 6 kt del Est/Nord-Est
Evolucionant progressivament
l' 01 a les 06 UTC al 01 a les 08 UTC
Vent 6 kt del Sud-Oest

TAF: VTSG 282300Z 0100/0124 00000KT 9999 FEW020 BECMG 0102/0104 06006KT BECMG 0106/0108 22006KT

Observacions i pronòstics meteorològics de més de 4000 aeroports (METAR i TAF).

Les estacions disponibles són els punts grocs i vermells al mapa.

Posi el ratolí al punt desitjat per veure el nom de l'estació.

Feu clic per veure les observacions i els pronòstics meteorològics.

Per canviar el mapa: feu clic els botons verds amb una creu de color negre per apropar; al botó verd amb un guió per allunyar la imatge; o en les fletxes verdes per a mapes adjacents.


METAR-TAF: